Flugplatz Donzdorf

Für EDPM sind keine METAR/TAF Berichte vorhanden.
Es werden die Flugwettermeldungen vom Flugplatz Stuttgart in 45 km Entfernung angezeigt.

Bericht für EDDS

vom 28.09. um 22:20 UTC

variable Windrichtung mit 2 kt

Sichtweite 10 km oder mehr

bedeckt in 3700 ft

Temperatur 13.0°C

Taupunkt 10.0°C

Luftfeuchtigkeit 82%

Luftdruck 1020 hPa

EDDS 282220Z VRB02KT 9999 OVC037 13/10 Q1020

Prognose für EDDS

vom 28.09. um 17:00 UTC

Am 28.09. zwischen 18:00 UTC und 04:00 UTC

Wind 4 kt aus 30°

Sichtweite 10 km oder mehr

aufgelockert bewölkt in 3500 ft


Am 28.09. zwischen 23:00 UTC und 01:00 UTC zeitweise mit einer Wahrscheinlichkeit von 40%

Code: TSRA

aufgebrochene Bewölkung in 3000 ft


Zwischen 04:00 und 06:00 UTC übergehend zu

Wind 8 kt aus 220°

Sichtweite 10 km oder mehr

aufgelockert bewölkt in 3500 ft


Zwischen 12:00 UTC und 16:00 UTC zeitweise

Wind 15 kt aus 250° in Böen 25 kt

Regenschauer

aufgebrochene Bewölkung in 3000 ft

TAF EDDS 281700Z 2818/2918 03004KT 9999 SCT035 PROB40 TEMPO 2823/2901 TSRA BKN030CB BECMG 2904/2906 22008KT TEMPO 2912/2916 25015G25KT SHRA BKN030CB
Impressum